createdAt,value
2019-03-05T00:04:18.827Z,14.87
2019-03-05T00:09:42.066Z,15.23
2019-03-05T00:15:05.549Z,17.20
2019-03-05T00:20:26.790Z,17.77
2019-03-05T00:25:49.827Z,16.73
2019-03-05T00:31:28.575Z,17.93
2019-03-05T00:37:00.502Z,20.03
2019-03-05T00:42:59.657Z,16.87
2019-03-05T00:49:01.119Z,17.37
2019-03-05T00:54:59.829Z,17.47
2019-03-05T01:00:50.376Z,18.50
2019-03-05T01:06:17.234Z,19.43
2019-03-05T01:11:43.223Z,18.93
2019-03-05T01:17:07.377Z,19.00
2019-03-05T01:22:30.457Z,17.70
2019-03-05T01:27:51.998Z,17.63
2019-03-05T01:33:15.013Z,33.50
2019-03-05T01:38:56.188Z,21.07
2019-03-05T01:44:19.204Z,21.93
2019-03-05T01:49:41.801Z,20.00
2019-03-05T01:55:04.784Z,17.10
2019-03-05T02:00:26.988Z,19.10
2019-03-05T02:05:50.177Z,17.27
2019-03-05T02:11:12.824Z,16.83
2019-03-05T02:16:35.187Z,16.70
2019-03-05T02:21:57.099Z,17.30
2019-03-05T02:28:22.376Z,17.53
2019-03-05T02:34:18.534Z,16.53
2019-03-05T02:40:14.499Z,16.70
2019-03-05T02:45:43.786Z,16.80
2019-03-05T02:51:56.023Z,17.70
2019-03-05T02:57:16.335Z,17.07
2019-03-05T03:02:57.352Z,18.43
2019-03-05T03:08:20.383Z,17.90
2019-03-05T03:13:42.138Z,17.93
2019-03-05T03:19:04.561Z,20.50
2019-03-05T03:24:28.183Z,19.03
2019-03-05T03:29:50.688Z,18.47
2019-03-05T03:35:14.310Z,19.07
2019-03-05T03:40:35.787Z,20.67
2019-03-05T03:45:58.016Z,18.80
2019-03-05T03:51:20.833Z,23.00
2019-03-05T03:56:42.730Z,21.47
2019-03-05T04:02:04.325Z,21.53
2019-03-05T04:07:25.523Z,21.27
2019-03-05T04:12:49.721Z,19.63
2019-03-05T04:18:12.399Z,26.97
2019-03-05T04:23:34.980Z,25.27
2019-03-05T04:28:56.837Z,33.70
2019-03-05T04:34:18.554Z,27.60
2019-03-05T04:39:42.848Z,47.30
2019-03-05T04:45:50.707Z,45.33
2019-03-05T04:51:18.887Z,37.60
2019-03-05T04:56:40.112Z,27.67
2019-03-05T05:02:27.957Z,29.97
2019-03-05T05:07:52.784Z,28.53
2019-03-05T05:13:14.253Z,30.53
2019-03-05T05:18:35.754Z,28.07
2019-03-05T05:23:59.948Z,23.43
2019-03-05T05:29:23.415Z,26.10
2019-03-05T05:34:44.651Z,24.50
2019-03-05T05:40:26.382Z,23.90
2019-03-05T05:45:49.453Z,27.47
2019-03-05T05:51:13.305Z,25.27
2019-03-05T05:56:34.609Z,26.10
2019-03-05T06:01:55.971Z,24.67
2019-03-05T06:07:17.514Z,22.77
2019-03-05T06:12:39.937Z,18.90
2019-03-05T06:18:02.319Z,18.03
2019-03-05T06:23:24.141Z,19.80
2019-03-05T06:28:45.565Z,18.77
2019-03-05T06:34:06.788Z,18.60
2019-03-05T06:39:28.377Z,18.70
2019-03-05T06:44:50.572Z,18.40
2019-03-05T06:50:11.925Z,18.50
2019-03-05T06:55:33.913Z,19.60
2019-03-05T07:00:54.976Z,25.30
2019-03-05T07:06:50.370Z,23.73
2019-03-05T07:12:34.708Z,22.30
2019-03-05T07:18:00.766Z,23.80
2019-03-05T07:24:02.117Z,18.47
2019-03-05T07:29:23.589Z,24.47
2019-03-05T07:34:46.581Z,21.20
2019-03-05T07:40:09.389Z,21.48
2019-03-05T07:45:30.576Z,18.73
2019-03-05T07:50:51.983Z,20.50
2019-03-05T07:56:13.073Z,23.47
2019-03-05T08:01:36.764Z,22.10
2019-03-05T08:06:58.650Z,17.95
2019-03-05T08:12:48.037Z,19.45
2019-03-05T08:18:09.240Z,21.05
2019-03-05T08:23:30.870Z,22.22
2019-03-05T08:28:52.753Z,21.90
2019-03-05T08:34:14.131Z,21.90
2019-03-05T08:39:35.972Z,21.05
2019-03-05T08:44:57.084Z,21.23
2019-03-05T08:50:18.955Z,20.60
2019-03-05T08:55:41.001Z,24.25
2019-03-05T09:01:03.915Z,20.17
2019-03-05T09:06:24.951Z,18.92
2019-03-05T09:11:46.262Z,19.98
2019-03-05T09:17:07.680Z,21.73
2019-03-05T09:22:29.415Z,24.35
2019-03-05T09:27:50.627Z,23.92
2019-03-05T09:33:11.928Z,19.77
2019-03-05T09:38:34.111Z,18.90
2019-03-05T09:43:54.955Z,19.30
2019-03-05T09:49:16.133Z,19.92
2019-03-05T09:54:37.795Z,19.15
2019-03-05T10:00:00.361Z,18.35
2019-03-05T10:05:26.294Z,17.17
2019-03-05T10:10:47.363Z,16.85
2019-03-05T10:16:09.703Z,18.82
2019-03-05T10:21:30.812Z,21.70
2019-03-05T10:26:53.010Z,19.77
2019-03-05T10:32:15.174Z,20.27
2019-03-05T10:37:36.979Z,19.52
2019-03-05T10:43:08.043Z,19.62
2019-03-05T10:48:22.991Z,21.20
2019-03-05T10:53:49.320Z,18.37
2019-03-05T10:59:10.541Z,17.62
2019-03-05T11:04:32.273Z,20.02
2019-03-05T11:09:53.817Z,19.07
2019-03-05T11:15:21.315Z,18.80
2019-03-05T11:20:43.007Z,19.80
2019-03-05T11:26:04.268Z,18.42
2019-03-05T11:31:25.611Z,19.60
2019-03-05T11:36:47.067Z,18.20
2019-03-05T11:42:09.156Z,18.27
2019-03-05T11:47:33.269Z,20.88
2019-03-05T11:52:55.449Z,19.00
2019-03-05T11:58:18.215Z,18.32
2019-03-05T12:03:39.925Z,23.32
2019-03-05T12:09:01.514Z,18.05
2019-03-05T12:14:23.409Z,17.10
2019-03-05T12:19:44.993Z,16.48
2019-03-05T12:25:08.054Z,19.85
2019-03-05T12:30:29.534Z,16.27
2019-03-05T12:35:50.765Z,17.33
2019-03-05T12:41:12.212Z,28.05
2019-03-05T12:46:33.333Z,18.27
2019-03-05T12:51:55.270Z,25.70
2019-03-05T12:57:16.865Z,20.57
2019-03-05T13:02:39.344Z,18.85
2019-03-05T13:08:02.010Z,17.92
2019-03-05T13:13:23.717Z,15.95
2019-03-05T13:18:45.074Z,16.37
2019-03-05T13:24:10.081Z,15.45
2019-03-05T13:29:29.580Z,15.32
2019-03-05T13:34:50.640Z,15.43
2019-03-05T13:40:14.727Z,15.23
2019-03-05T13:45:36.470Z,15.10
2019-03-05T13:51:34.578Z,17.02
2019-03-05T13:57:32.226Z,15.00
2019-03-05T14:03:06.780Z,14.10
2019-03-05T14:09:14.876Z,14.40
2019-03-05T14:14:36.890Z,17.90
2019-03-05T14:19:59.211Z,16.85
2019-03-05T14:25:20.865Z,14.68
2019-03-05T14:30:42.943Z,14.73
2019-03-05T14:36:04.459Z,15.50
2019-03-05T14:41:25.783Z,13.55
2019-03-05T14:46:52.597Z,13.45
2019-03-05T14:52:14.037Z,15.63
2019-03-05T14:57:35.816Z,16.57
2019-03-05T15:03:00.591Z,15.85
2019-03-05T15:08:27.424Z,21.93
2019-03-05T15:13:49.964Z,31.82
2019-03-05T15:19:20.915Z,51.80
2019-03-05T15:24:35.123Z,36.68
2019-03-05T15:29:56.652Z,35.48
2019-03-05T15:35:18.862Z,31.40
2019-03-05T15:40:44.473Z,44.67
2019-03-05T15:46:14.964Z,63.30
2019-03-05T15:51:37.201Z,80.17
2019-03-05T15:56:58.931Z,38.83
2019-03-05T16:02:22.381Z,166.53
2019-03-05T16:07:48.070Z,33.35
2019-03-05T16:13:09.856Z,86.45
2019-03-05T16:18:32.970Z,49.95
2019-03-05T16:23:56.319Z,73.62
2019-03-05T16:29:20.957Z,126.85
2019-03-05T16:35:19.553Z,64.20
2019-03-05T16:41:20.582Z,42.38
2019-03-05T16:47:16.163Z,36.40
2019-03-05T16:52:56.174Z,29.45
2019-03-05T16:58:48.730Z,21.48
2019-03-05T17:04:37.258Z,31.87
2019-03-05T17:10:25.787Z,34.18
2019-03-05T17:15:46.688Z,41.25
2019-03-05T17:21:10.821Z,24.30
2019-03-05T17:26:50.115Z,20.57
2019-03-05T17:32:13.071Z,17.87
2019-03-05T17:37:37.704Z,9.75
2019-03-05T17:43:02.115Z,10.90
2019-03-05T17:48:27.783Z,10.20
2019-03-05T17:53:55.583Z,11.80
2019-03-05T17:59:19.700Z,11.05
2019-03-05T18:04:44.618Z,15.58
2019-03-05T18:10:10.000Z,15.48
2019-03-05T18:15:32.005Z,10.15
2019-03-05T18:20:53.892Z,7.65
2019-03-05T18:26:21.161Z,8.95
2019-03-05T18:31:44.525Z,6.20
2019-03-05T18:37:06.759Z,7.10
2019-03-05T18:42:41.492Z,5.28
2019-03-05T18:48:04.419Z,6.58
2019-03-05T18:53:51.376Z,27.07
2019-03-05T18:59:13.999Z,6.12
2019-03-05T19:04:37.224Z,7.08
2019-03-05T19:10:02.101Z,6.53
2019-03-05T19:15:23.516Z,13.55
2019-03-05T19:20:50.175Z,5.33
2019-03-05T19:26:21.764Z,10.82
2019-03-05T19:31:42.915Z,4.97
2019-03-05T19:37:04.462Z,5.92
2019-03-05T19:42:31.334Z,5.53
2019-03-05T19:47:54.282Z,6.12
2019-03-05T19:53:17.261Z,4.90
2019-03-05T19:58:42.399Z,4.90
2019-03-05T20:04:11.473Z,7.00
2019-03-05T20:09:30.881Z,4.83
2019-03-05T20:14:59.795Z,5.03
2019-03-05T20:20:21.460Z,4.97
2019-03-05T20:25:44.505Z,5.42
2019-03-05T20:31:10.467Z,5.58
2019-03-05T20:36:44.774Z,5.30
2019-03-05T20:42:09.306Z,6.00
2019-03-05T20:47:33.013Z,4.25
2019-03-05T20:52:57.203Z,5.62
2019-03-05T20:58:22.997Z,4.67
2019-03-05T21:03:46.887Z,3.67
2019-03-05T21:09:22.887Z,5.85
2019-03-05T21:14:45.670Z,5.22
2019-03-05T21:20:09.291Z,5.08
2019-03-05T21:25:43.730Z,4.10
2019-03-05T21:31:07.738Z,4.20
2019-03-05T21:36:34.497Z,5.20
2019-03-05T21:42:07.406Z,4.28
2019-03-05T21:47:32.046Z,4.10
2019-03-05T21:52:56.971Z,5.10
2019-03-05T21:58:22.153Z,5.12
2019-03-05T22:04:06.614Z,5.33
2019-03-05T22:09:34.320Z,5.90
2019-03-05T22:15:11.455Z,6.45
2019-03-05T22:20:38.104Z,5.37
2019-03-05T22:26:10.925Z,7.97
2019-03-05T22:31:41.954Z,4.90
2019-03-05T22:37:07.909Z,5.30
2019-03-05T22:42:35.339Z,4.72
2019-03-05T22:48:13.767Z,5.62
2019-03-05T22:53:56.633Z,4.80
2019-03-05T22:59:31.832Z,5.17
2019-03-05T23:05:22.008Z,5.20
2019-03-05T23:11:00.111Z,4.78
2019-03-05T23:16:25.408Z,3.65
2019-03-05T23:21:50.275Z,3.00
2019-03-05T23:27:38.940Z,3.35
2019-03-05T23:33:17.713Z,2.80
2019-03-05T23:39:00.209Z,3.37
2019-03-05T23:44:23.291Z,3.05
2019-03-05T23:49:46.237Z,2.72
2019-03-05T23:55:11.810Z,3.30
